OKJ weather

Okayama Airport
Okayama City, Okayama Prefecture, Japan

Public forecast

Using degrees Celsius for public forecast. Weather courtesy of forecast.io.

METAR (pilot weather report)

Retrieved 2019/05/21 02:00 UTC (29 minutes ago):

RJOB 210200Z 29006KT 210V350 9999 FEW025 SCT035 20/10 Q1005

TAF (pilot weather forecast)

Forecast is more than 12 hours old.

Retrieved 2019/05/20 00:00 UTC (1 day ago):

TAF RJOB 202307Z 2100/2206 31006KT 9999 FEW020 BECMG 2105/2107 03005KT BECMG 2115/2118 21008KT